createdAt,value
2022-11-10T00:02:13.504Z,96902.44
2022-11-10T00:07:34.289Z,96904.72
2022-11-10T00:12:55.260Z,96889.44
2022-11-10T00:18:16.240Z,96899.41
2022-11-10T00:23:37.135Z,96893.25
2022-11-10T00:28:57.915Z,96888.56
2022-11-10T00:34:18.787Z,96879.00
2022-11-10T00:39:39.827Z,96869.50
2022-11-10T00:45:00.736Z,96880.41
2022-11-10T00:50:21.957Z,96875.13
2022-11-10T00:55:42.515Z,96872.31
2022-11-10T01:01:05.073Z,96872.44
2022-11-10T01:06:26.037Z,96865.75
2022-11-10T01:11:46.931Z,96867.97
2022-11-10T01:17:07.696Z,96873.25
2022-11-10T01:22:28.548Z,96872.44
2022-11-10T01:27:49.357Z,96836.53
2022-11-10T01:33:10.041Z,96845.25
2022-11-10T01:38:33.553Z,96853.06
2022-11-10T01:43:54.263Z,96862.59
2022-11-10T01:49:19.820Z,96859.41
2022-11-10T01:54:50.002Z,96868.22
2022-11-10T02:00:11.978Z,96874.97
2022-11-10T02:05:32.832Z,96859.41
2022-11-10T02:10:53.551Z,96859.31
2022-11-10T02:16:14.252Z,96846.47
2022-11-10T02:21:35.282Z,96859.56
2022-11-10T02:26:57.731Z,96871.53
2022-11-10T02:32:18.553Z,96867.19
2022-11-10T02:37:39.416Z,96867.41
2022-11-10T02:43:00.170Z,96866.72
2022-11-10T02:48:21.177Z,96867.66
2022-11-10T02:53:41.875Z,96854.56
2022-11-10T02:59:03.606Z,96866.31
2022-11-10T03:04:24.141Z,96876.53
2022-11-10T03:09:45.020Z,96864.78
2022-11-10T03:15:06.017Z,96864.94
2022-11-10T03:20:26.585Z,96875.06
2022-11-10T03:25:47.467Z,96882.88
2022-11-10T03:31:08.347Z,96876.44
2022-11-10T03:36:29.342Z,96896.19
2022-11-10T03:41:50.012Z,96873.66
2022-11-10T03:47:11.089Z,96895.31
2022-11-10T03:52:31.952Z,96899.81
2022-11-10T03:57:52.677Z,96884.97
2022-11-10T04:03:13.458Z,96895.25
2022-11-10T04:08:52.732Z,96882.28
2022-11-10T04:14:32.496Z,96901.19
2022-11-10T04:19:53.132Z,96900.38
2022-11-10T04:25:14.043Z,96908.94
2022-11-10T04:30:34.739Z,96896.47
2022-11-10T04:35:55.661Z,96895.75
2022-11-10T04:41:17.004Z,96896.59
2022-11-10T04:46:40.039Z,96913.75
2022-11-10T04:52:00.616Z,96898.19
2022-11-10T04:57:21.511Z,96920.03
2022-11-10T05:02:42.403Z,96904.31
2022-11-10T05:08:04.452Z,96909.56
2022-11-10T05:13:25.128Z,96919.97
2022-11-10T05:18:45.950Z,96932.88
2022-11-10T05:24:07.068Z,96929.25
2022-11-10T05:29:27.524Z,96944.75
2022-11-10T05:34:48.702Z,96929.13
2022-11-10T05:40:09.902Z,96935.69
2022-11-10T05:45:33.529Z,96948.34
2022-11-10T05:50:53.939Z,96956.03
2022-11-10T05:56:14.848Z,96951.69
2022-11-10T06:01:35.772Z,96967.31
2022-11-10T06:07:00.162Z,96960.41
2022-11-10T06:12:25.992Z,96969.63
2022-11-10T06:17:47.141Z,96960.00
2022-11-10T06:23:11.400Z,96973.53
2022-11-10T06:28:32.476Z,96953.25
2022-11-10T06:33:53.390Z,96963.91
2022-11-10T06:39:14.420Z,96969.63
2022-11-10T06:44:35.191Z,96969.00
2022-11-10T06:49:55.953Z,96960.75
2022-11-10T06:55:16.980Z,96967.19
2022-11-10T07:00:37.922Z,96965.69
2022-11-10T07:05:58.724Z,96935.16
2022-11-10T07:11:20.412Z,96905.22
2022-11-10T07:16:41.071Z,96902.66
2022-11-10T07:22:05.456Z,96898.47
2022-11-10T07:27:28.784Z,96906.16
2022-11-10T07:33:11.292Z,96890.38
2022-11-10T07:38:31.901Z,96904.78
2022-11-10T07:43:52.802Z,96912.84
2022-11-10T07:49:13.639Z,96907.47
2022-11-10T07:54:34.661Z,96905.25
2022-11-10T07:59:57.905Z,96913.31
2022-11-10T08:05:19.549Z,96889.78
2022-11-10T08:10:41.805Z,96899.25
2022-11-10T08:16:03.353Z,96892.09
2022-11-10T08:21:24.013Z,96893.53
2022-11-10T08:26:44.722Z,96893.47
2022-11-10T08:32:05.438Z,96905.78
2022-11-10T08:37:28.216Z,96886.19
2022-11-10T08:42:49.494Z,96891.28
2022-11-10T08:48:13.542Z,96904.22
2022-11-10T08:53:34.288Z,96886.75
2022-11-10T08:58:55.155Z,96884.31
2022-11-10T09:04:16.110Z,96884.31
2022-11-10T09:09:37.144Z,96879.59
2022-11-10T09:14:57.837Z,96877.72
2022-11-10T09:20:19.048Z,96859.13
2022-11-10T09:25:40.805Z,96871.75
2022-11-10T09:31:01.848Z,96835.97
2022-11-10T09:36:22.721Z,96856.84
2022-11-10T09:41:45.229Z,96842.63
2022-11-10T09:47:42.435Z,96850.38
2022-11-10T09:53:02.033Z,96841.47
2022-11-10T09:58:27.332Z,96823.91
2022-11-10T10:03:58.253Z,96831.34
2022-11-10T10:09:42.650Z,96829.94
2022-11-10T10:15:38.553Z,96836.16
2022-11-10T10:21:25.195Z,96829.34
2022-11-10T10:26:53.588Z,96825.91
2022-11-10T10:32:15.532Z,96819.56
2022-11-10T10:37:51.654Z,96824.63
2022-11-10T10:43:12.788Z,96825.69
2022-11-10T10:48:34.019Z,96799.03
2022-11-10T10:53:54.303Z,96823.88
2022-11-10T10:59:23.038Z,96816.13
2022-11-10T11:04:43.909Z,96814.84
2022-11-10T11:10:17.499Z,96823.47
2022-11-10T11:15:38.124Z,96798.66
2022-11-10T11:21:17.593Z,96819.19
2022-11-10T11:27:04.312Z,96807.50
2022-11-10T11:32:24.956Z,96825.94
2022-11-10T11:38:07.609Z,96818.59
2022-11-10T11:43:36.408Z,96824.34
2022-11-10T11:49:43.659Z,96816.63
2022-11-10T11:55:26.180Z,96825.28
2022-11-10T12:01:04.445Z,96817.97
2022-11-10T12:06:33.206Z,96819.41
2022-11-10T12:12:12.132Z,96827.94
2022-11-10T12:17:40.445Z,96833.28
2022-11-10T12:23:23.504Z,96836.41
2022-11-10T12:29:01.121Z,96833.19
2022-11-10T12:34:40.981Z,96842.91
2022-11-10T12:40:18.159Z,96841.41
2022-11-10T12:45:51.755Z,96847.34
2022-11-10T12:51:30.199Z,96847.06
2022-11-10T12:56:56.676Z,96838.72
2022-11-10T13:02:20.757Z,96860.88
2022-11-10T13:07:44.483Z,96851.66
2022-11-10T13:13:05.207Z,96866.59
2022-11-10T13:18:31.917Z,96879.50
2022-11-10T13:23:52.744Z,96887.91
2022-11-10T13:29:32.309Z,96891.63
2022-11-10T13:34:54.132Z,96894.56
2022-11-10T13:40:18.108Z,96897.81
2022-11-10T13:45:44.324Z,96900.09
2022-11-10T13:51:12.291Z,96916.13
2022-11-10T13:56:52.842Z,96898.13
2022-11-10T14:02:36.904Z,96923.72
2022-11-10T14:08:07.357Z,96925.69
2022-11-10T14:13:50.014Z,96914.06
2022-11-10T14:19:37.895Z,96932.69
2022-11-10T14:25:24.243Z,96940.13
2022-11-10T14:30:52.515Z,96933.78
2022-11-10T14:36:14.247Z,96936.06
2022-11-10T14:41:35.050Z,96942.56
2022-11-10T14:46:56.879Z,96954.81
2022-11-10T14:52:17.941Z,96950.06
2022-11-10T14:57:39.873Z,96941.13
2022-11-10T15:03:01.182Z,96960.75
2022-11-10T15:08:26.022Z,96968.75
2022-11-10T15:13:46.609Z,96981.44
2022-11-10T15:19:28.699Z,96990.06
2022-11-10T15:24:52.794Z,96999.38
2022-11-10T15:30:32.157Z,97008.75
2022-11-10T15:35:53.927Z,97008.28
2022-11-10T15:41:26.809Z,97018.25
2022-11-10T15:46:51.846Z,97025.41
2022-11-10T15:52:23.130Z,97029.31
2022-11-10T15:57:45.063Z,97050.22
2022-11-10T16:03:09.962Z,97053.81
2022-11-10T16:08:32.436Z,97053.28
2022-11-10T16:13:53.708Z,97069.09
2022-11-10T16:19:14.538Z,97068.09
2022-11-10T16:24:35.007Z,97061.75
2022-11-10T16:29:55.972Z,97072.47
2022-11-10T16:35:16.708Z,97065.94
2022-11-10T16:40:37.786Z,97091.38
2022-11-10T16:46:02.429Z,97079.44
2022-11-10T16:51:48.539Z,97099.78
2022-11-10T16:57:14.255Z,97098.41
2022-11-10T17:02:37.300Z,97117.31
2022-11-10T17:07:59.527Z,97123.19
2022-11-10T17:13:19.968Z,97118.16
2022-11-10T17:18:41.026Z,97119.09
2022-11-10T17:24:03.234Z,97137.56
2022-11-10T17:29:24.710Z,97129.78
2022-11-10T17:34:45.610Z,97137.72
2022-11-10T17:40:18.305Z,97148.16
2022-11-10T17:45:39.583Z,97144.34
2022-11-10T17:51:01.161Z,97148.78
2022-11-10T17:56:21.990Z,97147.81
2022-11-10T18:01:42.901Z,97153.47
2022-11-10T18:07:03.757Z,97152.19
2022-11-10T18:12:27.961Z,97138.25
2022-11-10T18:17:49.086Z,97166.41
2022-11-10T18:23:12.730Z,97157.94
2022-11-10T18:28:34.818Z,97192.38
2022-11-10T18:33:55.719Z,97177.00
2022-11-10T18:39:16.515Z,97193.03
2022-11-10T18:44:38.157Z,97185.19
2022-11-10T18:49:58.778Z,97204.56
2022-11-10T18:55:20.380Z,97205.53
2022-11-10T19:00:41.384Z,97205.81
2022-11-10T19:06:02.129Z,97202.63
2022-11-10T19:11:23.031Z,97219.97
2022-11-10T19:16:43.737Z,97206.53
2022-11-10T19:22:04.805Z,97222.09
2022-11-10T19:27:25.635Z,97222.78
2022-11-10T19:32:46.732Z,97222.66
2022-11-10T19:38:07.589Z,97229.03
2022-11-10T19:43:30.176Z,97222.34
2022-11-10T19:48:51.027Z,97233.25
2022-11-10T19:54:13.787Z,97234.25
2022-11-10T19:59:34.703Z,97236.72
2022-11-10T20:05:13.719Z,97225.69
2022-11-10T20:10:34.611Z,97229.59
2022-11-10T20:15:55.510Z,97242.34
2022-11-10T20:21:21.001Z,97232.31
2022-11-10T20:26:41.794Z,97240.78
2022-11-10T20:32:03.432Z,97246.13
2022-11-10T20:37:24.063Z,97248.00
2022-11-10T20:48:25.326Z,97255.63
2022-11-10T20:53:47.282Z,97262.41
2022-11-10T20:59:07.951Z,97252.50
2022-11-10T21:04:29.269Z,97259.47
2022-11-10T21:09:50.115Z,97259.53
2022-11-10T21:15:10.932Z,97248.38
2022-11-10T21:20:33.412Z,97265.47
2022-11-10T21:26:00.769Z,97267.97
2022-11-10T21:31:21.748Z,97266.41
2022-11-10T21:36:42.731Z,97273.47
2022-11-10T21:42:03.353Z,97266.00
2022-11-10T21:47:24.317Z,97289.94
2022-11-10T21:52:45.240Z,97279.78
2022-11-10T21:58:06.225Z,97298.88
2022-11-10T22:03:29.230Z,97290.00
2022-11-10T22:08:50.200Z,97313.19
2022-11-10T22:14:20.092Z,97317.59
2022-11-10T22:19:41.195Z,97312.31
2022-11-10T22:25:01.726Z,97323.81
2022-11-10T22:30:22.694Z,97314.53
2022-11-10T22:35:43.538Z,97311.19
2022-11-10T22:41:23.988Z,97319.66
2022-11-10T22:46:48.298Z,97327.59
2022-11-10T22:52:09.013Z,97319.97
2022-11-10T22:57:29.686Z,97328.72
2022-11-10T23:02:52.581Z,97328.75
2022-11-10T23:08:13.347Z,97326.06
2022-11-10T23:13:36.060Z,97314.81
2022-11-10T23:19:10.545Z,97325.00
2022-11-10T23:24:31.543Z,97325.84
2022-11-10T23:29:52.342Z,97324.06
2022-11-10T23:35:13.147Z,97335.41
2022-11-10T23:40:34.091Z,97324.19
2022-11-10T23:46:10.558Z,97337.22
2022-11-10T23:51:31.252Z,97319.91
2022-11-10T23:56:52.080Z,97325.84
